Time;durP1;ratioP1;P1;durP2;ratioP2;P2;SDS_P1;SDS_P2;PMS_P1;PMS_P2;Temp;Humidity;BMP_temperature;BMP_pressure;BME280_temperature;BME280_humidity;BME280_pressure;Samples;Min_cycle;Max_cycle;Signal;HPM_P1;HPM_P2
2023/07/25 00:01:39;;;;;;;2.63;1.30;;;;;;;;;;5000944;28;88638;-80
2023/07/25 00:04:05;;;;;;;3.92;1.40;;;;;;;;;;4995172;28;88499;-80
2023/07/25 00:06:32;;;;;;;2.83;1.48;;;;;;;;;;5004909;28;88620;-80
2023/07/25 00:08:58;;;;;;;3.35;1.30;;;;;;;;;;5009368;28;88081;-81
2023/07/25 00:11:25;;;;;;;2.05;1.10;;;;;;;;;;5015264;28;88625;-81
2023/07/25 00:13:51;;;;;;;3.50;1.40;;;;;;;;;;5013704;28;91038;-80
2023/07/25 00:16:18;;;;;;;3.63;1.30;;;;;;;;;;5015338;28;87952;-80
2023/07/25 00:18:44;;;;;;;3.47;1.40;;;;;;;;;;5009059;28;89661;-81
2023/07/25 00:21:11;;;;;;;2.95;1.35;;;;;;;;;;5004047;28;88764;-80
2023/07/25 00:23:37;;;;;;;3.45;1.50;;;;;;;;;;5014554;28;88552;-81
2023/07/25 00:26:04;;;;;;;3.00;1.27;;;;;;;;;;5013645;28;88724;-80
2023/07/25 00:28:30;;;;;;;2.60;1.25;;;;;;;;;;5009043;28;89697;-80
2023/07/25 00:30:57;;;;;;;3.83;1.33;;;;;;;;;;5003713;28;88254;-81
2023/07/25 00:33:23;;;;;;;4.03;1.33;;;;;;;;;;5000123;28;88984;-80
2023/07/25 00:35:50;;;;;;;2.80;1.27;;;;;;;;;;4996724;28;88820;-80
2023/07/25 00:38:17;;;;;;;3.05;1.25;;;;;;;;;;5012882;28;87992;-80
2023/07/25 00:40:43;;;;;;;2.55;1.30;;;;;;;;;;5017468;28;88697;-81
2023/07/25 00:43:10;;;;;;;3.00;1.50;;;;;;;;;;5002536;28;88570;-80
2023/07/25 00:45:37;;;;;;;4.03;1.42;;;;;;;;;;5007382;28;89928;-80
2023/07/25 00:48:04;;;;;;;4.63;1.38;;;;;;;;;;5014287;28;88004;-80
2023/07/25 00:50:30;;;;;;;2.95;1.30;;;;;;;;;;5012488;28;90841;-81
2023/07/25 00:52:58;;;;;;;3.80;1.40;;;;;;;;;;5012143;28;88627;-81
2023/07/25 00:55:27;;;;;;;3.63;1.40;;;;;;;;;;5012462;28;90162;-80
2023/07/25 00:57:53;;;;;;;3.65;1.30;;;;;;;;;;5012233;28;88589;-80
2023/07/25 01:00:20;;;;;;;4.03;1.40;;;;;;;;;;4999721;28;88556;-80
2023/07/25 01:02:47;;;;;;;2.92;1.30;;;;;;;;;;5016951;28;87431;-80
2023/07/25 01:05:13;;;;;;;2.30;1.20;;;;;;;;;;5004592;28;89845;-80
2023/07/25 01:07:40;;;;;;;2.13;1.30;;;;;;;;;;5010978;28;88090;-80
2023/07/25 01:10:07;;;;;;;2.47;1.40;;;;;;;;;;5006396;28;88718;-80
2023/07/25 01:12:33;;;;;;;3.67;1.40;;;;;;;;;;5013868;28;89252;-80
2023/07/25 01:15:00;;;;;;;2.22;1.30;;;;;;;;;;5000865;28;88336;-80
2023/07/25 01:17:27;;;;;;;2.88;1.40;;;;;;;;;;5014494;28;89166;-80
2023/07/25 01:19:54;;;;;;;2.20;1.50;;;;;;;;;;5009773;28;91028;-81
2023/07/25 01:22:21;;;;;;;2.42;1.20;;;;;;;;;;5006449;28;88149;-80
2023/07/25 01:24:49;;;;;;;3.30;1.33;;;;;;;;;;5015129;28;90544;-81
2023/07/25 01:27:17;;;;;;;2.60;1.17;;;;;;;;;;5010185;28;89981;-80
2023/07/25 01:29:43;;;;;;;2.70;1.30;;;;;;;;;;4999629;28;90054;-80
2023/07/25 01:32:10;;;;;;;3.58;1.45;;;;;;;;;;5007050;28;88027;-80
2023/07/25 01:34:37;;;;;;;3.03;1.60;;;;;;;;;;5011455;28;89165;-80
2023/07/25 01:37:04;;;;;;;4.25;1.50;;;;;;;;;;5004874;28;90482;-80
2023/07/25 01:39:31;;;;;;;3.40;1.33;;;;;;;;;;5012051;28;88981;-81
2023/07/25 01:41:57;;;;;;;3.15;1.40;;;;;;;;;;5005648;28;88054;-81
2023/07/25 01:44:24;;;;;;;3.40;1.40;;;;;;;;;;4994912;28;91388;-80
2023/07/25 01:46:50;;;;;;;4.90;1.75;;;;;;;;;;5016097;28;88743;-80
2023/07/25 01:49:17;;;;;;;2.90;1.40;;;;;;;;;;5004635;28;91451;-80
2023/07/25 01:51:44;;;;;;;3.63;1.40;;;;;;;;;;5006325;28;87841;-80
2023/07/25 01:54:10;;;;;;;2.95;1.20;;;;;;;;;;5011059;28;90027;-80
2023/07/25 01:56:37;;;;;;;3.25;1.50;;;;;;;;;;5000542;28;88405;-80
2023/07/25 01:59:03;;;;;;;3.95;1.20;;;;;;;;;;4995263;28;92305;-80
2023/07/25 02:01:30;;;;;;;2.30;1.27;;;;;;;;;;5011971;28;89170;-80
2023/07/25 02:03:57;;;;;;;2.80;1.48;;;;;;;;;;5012252;28;88695;-80
2023/07/25 02:06:23;;;;;;;3.05;1.50;;;;;;;;;;5006157;28;88886;-80
2023/07/25 02:08:50;;;;;;;5.03;1.50;;;;;;;;;;5012794;28;87976;-80
2023/07/25 02:11:16;;;;;;;2.42;1.50;;;;;;;;;;4998276;28;88959;-80
2023/07/25 02:13:43;;;;;;;4.22;1.20;;;;;;;;;;5011466;28;89576;-80
2023/07/25 02:16:09;;;;;;;2.90;1.25;;;;;;;;;;5013686;28;88439;-80
2023/07/25 02:18:36;;;;;;;2.65;1.40;;;;;;;;;;5004129;28;91792;-80
2023/07/25 02:21:02;;;;;;;2.53;1.50;;;;;;;;;;5000894;28;90079;-80
2023/07/25 02:23:29;;;;;;;2.88;1.40;;;;;;;;;;5007926;28;88840;-81
2023/07/25 02:25:55;;;;;;;2.03;1.50;;;;;;;;;;5007251;28;88670;-80
2023/07/25 02:28:22;;;;;;;3.20;1.58;;;;;;;;;;5008530;28;90343;-80
2023/07/25 02:30:48;;;;;;;2.85;1.30;;;;;;;;;;5005908;28;88247;-80
2023/07/25 02:33:15;;;;;;;3.95;1.60;;;;;;;;;;5010233;28;88627;-80
2023/07/25 02:35:42;;;;;;;3.22;1.45;;;;;;;;;;5006884;28;88486;-79
2023/07/25 02:38:09;;;;;;;3.55;1.35;;;;;;;;;;4993872;28;90044;-79
2023/07/25 02:40:36;;;;;;;3.22;1.48;;;;;;;;;;4988170;28;90118;-80
2023/07/25 02:43:03;;;;;;;2.47;1.35;;;;;;;;;;5013332;28;88264;-80
2023/07/25 02:45:29;;;;;;;;;;;;;;;;;;5013071;28;88941;-81
2023/07/25 02:47:56;;;;;;;3.33;1.48;;;;;;;;;;5011816;28;88776;-81
2023/07/25 02:50:22;;;;;;;2.90;1.30;;;;;;;;;;5004799;28;91395;-80
2023/07/25 02:52:49;;;;;;;2.90;1.38;;;;;;;;;;4998148;28;88141;-81
2023/07/25 02:55:16;;;;;;;2.85;1.50;;;;;;;;;;5002569;28;88500;-80
2023/07/25 02:57:42;;;;;;;3.28;1.40;;;;;;;;;;4997950;28;91328;-80
2023/07/25 03:00:10;;;;;;;2.42;1.40;;;;;;;;;;5010706;28;88410;-80
2023/07/25 03:02:37;;;;;;;3.40;1.52;;;;;;;;;;5012507;28;88774;-80
2023/07/25 03:05:03;;;;;;;2.75;1.30;;;;;;;;;;4995155;28;87934;-80
2023/07/25 03:07:30;;;;;;;2.20;1.20;;;;;;;;;;5008070;28;88000;-81
2023/07/25 03:09:56;;;;;;;2.08;1.23;;;;;;;;;;5006696;28;89423;-81
2023/07/25 03:12:24;;;;;;;2.28;1.30;;;;;;;;;;5015254;28;90302;-81
2023/07/25 03:14:51;;;;;;;2.45;1.40;;;;;;;;;;4994663;28;89392;-80
2023/07/25 03:17:17;;;;;;;4.03;1.30;;;;;;;;;;5016300;28;89645;-80
2023/07/25 03:19:44;;;;;;;2.88;1.55;;;;;;;;;;5010562;28;88088;-81
2023/07/25 03:22:10;;;;;;;2.78;1.40;;;;;;;;;;5001470;28;87974;-80
2023/07/25 03:24:37;;;;;;;3.83;1.40;;;;;;;;;;5013692;28;88458;-80
2023/07/25 03:27:04;;;;;;;3.05;1.20;;;;;;;;;;4994584;28;88096;-79
2023/07/25 03:29:31;;;;;;;3.03;1.40;;;;;;;;;;4995570;28;91335;-80
2023/07/25 03:31:57;;;;;;;3.85;1.35;;;;;;;;;;5008490;28;88809;-80
2023/07/25 03:34:24;;;;;;;4.13;1.30;;;;;;;;;;5001325;28;88245;-80
2023/07/25 03:36:50;;;;;;;2.70;1.50;;;;;;;;;;5004201;28;89660;-79
2023/07/25 03:39:17;;;;;;;3.20;1.45;;;;;;;;;;5016050;28;89166;-80
2023/07/25 03:41:44;;;;;;;2.85;1.40;;;;;;;;;;5018035;28;90844;-80
2023/07/25 03:44:11;;;;;;;2.33;1.25;;;;;;;;;;5018154;28;89176;-80
2023/07/25 03:46:37;;;;;;;2.85;1.35;;;;;;;;;;5014714;28;88132;-80
2023/07/25 03:49:04;;;;;;;4.38;1.67;;;;;;;;;;4995455;28;89677;-80
2023/07/25 03:51:31;;;;;;;3.45;1.30;;;;;;;;;;5007427;28;89329;-80
2023/07/25 03:53:58;;;;;;;2.78;1.17;;;;;;;;;;5016099;28;87519;-80
2023/07/25 03:56:24;;;;;;;2.40;1.38;;;;;;;;;;5014924;28;88333;-80
2023/07/25 03:58:51;;;;;;;1.77;1.33;;;;;;;;;;5018512;28;87990;-80
2023/07/25 04:01:17;;;;;;;2.72;1.33;;;;;;;;;;5017163;28;91537;-80
2023/07/25 04:03:44;;;;;;;2.50;1.30;;;;;;;;;;5010730;28;88740;-80
2023/07/25 04:06:11;;;;;;;2.92;1.25;;;;;;;;;;5010535;28;88024;-80
2023/07/25 04:08:37;;;;;;;2.97;1.50;;;;;;;;;;5005040;28;88313;-80
2023/07/25 04:11:04;;;;;;;4.22;1.60;;;;;;;;;;4996564;28;88758;-80
2023/07/25 04:13:31;;;;;;;3.05;1.30;;;;;;;;;;5012585;28;88687;-80
2023/07/25 04:15:58;;;;;;;3.17;1.40;;;;;;;;;;5011773;28;90056;-80
2023/07/25 04:18:24;;;;;;;2.53;1.30;;;;;;;;;;5003214;28;88570;-80
2023/07/25 04:20:51;;;;;;;2.33;1.35;;;;;;;;;;5013168;28;88080;-80
2023/07/25 04:23:17;;;;;;;2.58;1.30;;;;;;;;;;5014497;28;89481;-81
2023/07/25 04:25:44;;;;;;;4.18;1.40;;;;;;;;;;5011964;28;90273;-80
2023/07/25 04:28:10;;;;;;;2.90;1.33;;;;;;;;;;5010887;28;89073;-80
2023/07/25 04:30:37;;;;;;;2.97;1.40;;;;;;;;;;4999101;28;89201;-80
2023/07/25 04:33:03;;;;;;;3.10;1.50;;;;;;;;;;4998771;28;88422;-81
2023/07/25 04:35:30;;;;;;;3.15;1.33;;;;;;;;;;5004620;28;88631;-80
2023/07/25 04:37:56;;;;;;;3.22;1.30;;;;;;;;;;5003761;28;88772;-81
2023/07/25 04:40:23;;;;;;;1.85;1.20;;;;;;;;;;5015914;28;88639;-81
2023/07/25 04:42:49;;;;;;;4.03;1.50;;;;;;;;;;5017943;28;87272;-80
2023/07/25 04:45:16;;;;;;;2.50;1.38;;;;;;;;;;5006157;28;88012;-80
2023/07/25 04:47:43;;;;;;;2.03;1.30;;;;;;;;;;5015011;28;91801;-80
2023/07/25 04:50:10;;;;;;;2.50;1.30;;;;;;;;;;5014915;28;88910;-81
2023/07/25 04:52:37;;;;;;;;;;;;;;;;;;5015712;28;87971;-81
2023/07/25 04:55:03;;;;;;;2.50;1.30;;;;;;;;;;4993381;28;115041;-80
2023/07/25 04:57:30;;;;;;;2.33;1.30;;;;;;;;;;5009019;28;90867;-80
2023/07/25 04:59:56;;;;;;;2.88;1.35;;;;;;;;;;5009790;28;87988;-80
2023/07/25 05:02:23;;;;;;;3.58;1.63;;;;;;;;;;5012106;28;91153;-80
2023/07/25 05:04:50;;;;;;;2.00;1.40;;;;;;;;;;5013682;28;88046;-81
2023/07/25 05:07:16;;;;;;;2.15;1.25;;;;;;;;;;5000543;28;88303;-80
2023/07/25 05:09:43;;;;;;;3.45;1.52;;;;;;;;;;5010637;28;89251;-81
2023/07/25 05:12:11;;;;;;;1.95;1.15;;;;;;;;;;5012528;28;88065;-80
2023/07/25 05:14:37;;;;;;;3.05;1.63;;;;;;;;;;5005645;28;90084;-80
2023/07/25 05:17:04;;;;;;;2.22;1.33;;;;;;;;;;5013507;28;88673;-80
2023/07/25 05:19:30;;;;;;;3.08;1.30;;;;;;;;;;5013545;28;88281;-80
2023/07/25 05:21:57;;;;;;;2.75;1.38;;;;;;;;;;5008839;28;89084;-80
2023/07/25 05:24:24;;;;;;;2.17;1.20;;;;;;;;;;4992864;28;90256;-81
2023/07/25 05:26:50;;;;;;;3.42;1.45;;;;;;;;;;4994506;28;88565;-80
2023/07/25 05:29:17;;;;;;;2.63;1.50;;;;;;;;;;4993764;28;88976;-80
2023/07/25 05:31:43;;;;;;;3.78;1.35;;;;;;;;;;5010598;28;87406;-80
2023/07/25 05:34:10;;;;;;;3.97;1.50;;;;;;;;;;4993687;28;88762;-80
2023/07/25 05:36:37;;;;;;;2.45;1.30;;;;;;;;;;5010814;28;88456;-80
2023/07/25 05:39:03;;;;;;;2.45;1.50;;;;;;;;;;5004117;28;89801;-80
2023/07/25 05:41:30;;;;;;;3.78;1.50;;;;;;;;;;4999728;28;88812;-80
2023/07/25 05:43:56;;;;;;;3.33;1.50;;;;;;;;;;5007021;28;89724;-80
2023/07/25 05:46:23;;;;;;;2.38;1.30;;;;;;;;;;5013040;28;88268;-80
2023/07/25 05:48:49;;;;;;;5.05;1.58;;;;;;;;;;5013227;28;88907;-80
2023/07/25 05:51:16;;;;;;;2.70;1.30;;;;;;;;;;5022477;28;88037;-79
2023/07/25 05:53:42;;;;;;;2.20;1.20;;;;;;;;;;5004219;28;88263;-80
2023/07/25 05:56:09;;;;;;;2.88;1.42;;;;;;;;;;5006019;28;87318;-80
2023/07/25 05:58:35;;;;;;;2.42;1.40;;;;;;;;;;5014920;28;88593;-80
2023/07/25 06:01:02;;;;;;;3.10;1.42;;;;;;;;;;5013563;28;89510;-80
2023/07/25 06:03:28;;;;;;;2.10;1.35;;;;;;;;;;5010401;28;89609;-80
2023/07/25 06:05:55;;;;;;;2.28;1.25;;;;;;;;;;5013917;28;87964;-80
2023/07/25 06:08:21;;;;;;;2.60;1.50;;;;;;;;;;4982823;28;89852;-80
2023/07/25 06:10:48;;;;;;;3.72;1.50;;;;;;;;;;4998723;28;90089;-80
2023/07/25 06:13:14;;;;;;;2.85;1.40;;;;;;;;;;5012513;28;89551;-79
2023/07/25 06:15:41;;;;;;;1.98;1.20;;;;;;;;;;5013043;28;89374;-79
2023/07/25 06:18:08;;;;;;;3.40;1.40;;;;;;;;;;5012576;28;88051;-80
2023/07/25 06:20:34;;;;;;;3.47;1.38;;;;;;;;;;5013480;28;89053;-80
2023/07/25 06:23:01;;;;;;;2.60;1.40;;;;;;;;;;5001183;28;89806;-80
2023/07/25 06:25:28;;;;;;;2.88;1.25;;;;;;;;;;5017876;28;88108;-80
2023/07/25 06:27:54;;;;;;;2.38;1.20;;;;;;;;;;5006908;28;89482;-80
2023/07/25 06:30:21;;;;;;;3.72;1.30;;;;;;;;;;5003206;28;88053;-80
2023/07/25 06:32:47;;;;;;;3.08;1.30;;;;;;;;;;5002801;28;88423;-80
2023/07/25 06:35:16;;;;;;;2.55;1.48;;;;;;;;;;5002444;28;90614;-80
2023/07/25 06:37:42;;;;;;;3.58;1.10;;;;;;;;;;5000225;28;89008;-80
2023/07/25 06:40:09;;;;;;;2.92;1.38;;;;;;;;;;5012348;28;88455;-80
2023/07/25 06:42:35;;;;;;;3.63;1.67;;;;;;;;;;4998777;28;88471;-80
2023/07/25 06:45:03;;;;;;;3.53;1.48;;;;;;;;;;5010485;28;90747;-80
2023/07/25 06:47:30;;;;;;;2.65;1.27;;;;;;;;;;5014772;28;88038;-80
2023/07/25 06:49:58;;;;;;;2.30;1.25;;;;;;;;;;5010068;28;88382;-80
2023/07/25 06:52:24;;;;;;;2.42;1.30;;;;;;;;;;4998556;28;88760;-79
2023/07/25 06:54:51;;;;;;;3.20;1.60;;;;;;;;;;5011991;28;88823;-80
2023/07/25 06:57:17;;;;;;;2.53;1.30;;;;;;;;;;5008606;28;88333;-80
2023/07/25 06:59:45;;;;;;;4.43;1.50;;;;;;;;;;5006087;28;87997;-80
2023/07/25 07:02:12;;;;;;;2.78;1.40;;;;;;;;;;5012338;28;89496;-80
2023/07/25 07:04:38;;;;;;;4.60;1.33;;;;;;;;;;5006951;28;88873;-80
2023/07/25 07:07:06;;;;;;;3.50;1.38;;;;;;;;;;4992115;28;88043;-80
2023/07/25 07:09:33;;;;;;;2.83;1.08;;;;;;;;;;5012000;28;87852;-80
2023/07/25 07:12:00;;;;;;;3.50;1.50;;;;;;;;;;5011737;28;88111;-80
2023/07/25 07:14:26;;;;;;;1.92;1.15;;;;;;;;;;5011729;28;88325;-80
2023/07/25 07:16:53;;;;;;;2.72;1.30;;;;;;;;;;5009424;28;90095;-80
2023/07/25 07:19:19;;;;;;;2.80;1.23;;;;;;;;;;5007005;28;89342;-80
2023/07/25 07:21:46;;;;;;;3.08;1.50;;;;;;;;;;5004957;28;88695;-80
2023/07/25 07:24:12;;;;;;;3.25;1.30;;;;;;;;;;5007513;28;88060;-81
2023/07/25 07:26:39;;;;;;;3.80;1.40;;;;;;;;;;5012762;28;88818;-79
2023/07/25 07:29:05;;;;;;;3.17;1.25;;;;;;;;;;5002212;28;88682;-80
2023/07/25 07:31:32;;;;;;;4.28;1.30;;;;;;;;;;5014937;28;88693;-80
2023/07/25 07:34:14;;;;;;;3.63;1.35;;;;;;;;;;5002273;28;88090;-79
2023/07/25 07:36:41;;;;;;;3.10;1.23;;;;;;;;;;4986478;28;89583;-81
2023/07/25 07:39:08;;;;;;;2.90;1.30;;;;;;;;;;5010006;28;88515;-80
2023/07/25 07:41:35;;;;;;;2.83;1.38;;;;;;;;;;5016802;28;89511;-80
2023/07/25 07:44:01;;;;;;;4.03;1.23;;;;;;;;;;5016915;28;88130;-80
2023/07/25 07:46:31;;;;;;;1.33;0.93;;;;;;;;;;5025147;28;88324;-79
2023/07/25 07:48:58;;;;;;;3.08;1.20;;;;;;;;;;4997865;28;88197;-81
2023/07/25 07:51:25;;;;;;;4.18;1.10;;;;;;;;;;5020137;28;88043;-79
2023/07/25 07:53:52;;;;;;;2.53;1.20;;;;;;;;;;5024561;28;89806;-81
2023/07/25 07:56:18;;;;;;;4.13;1.27;;;;;;;;;;5016751;28;88266;-81
2023/07/25 07:58:45;;;;;;;5.78;1.38;;;;;;;;;;5027869;28;87353;-79
2023/07/25 08:01:19;;;;;;;2.45;1.00;;;;;;;;;;5017323;28;90344;-79
2023/07/25 08:03:46;;;;;;;2.83;1.23;;;;;;;;;;5016595;28;88389;-81
2023/07/25 08:06:13;;;;;;;2.22;1.10;;;;;;;;;;5014454;28;88709;-78
2023/07/25 08:08:40;;;;;;;2.75;1.20;;;;;;;;;;5005496;28;88811;-79
2023/07/25 08:11:07;;;;;;;1.92;1.10;;;;;;;;;;5007780;28;88015;-79
2023/07/25 08:13:33;;;;;;;2.90;1.10;;;;;;;;;;5012236;28;88479;-80
2023/07/25 08:16:00;;;;;;;4.03;0.98;;;;;;;;;;5009386;28;88555;-81
2023/07/25 08:18:27;;;;;;;2.35;1.08;;;;;;;;;;5014543;28;88086;-80
2023/07/25 08:20:57;;;;;;;2.92;1.00;;;;;;;;;;5014283;28;88913;-80
2023/07/25 08:23:24;;;;;;;3.05;1.00;;;;;;;;;;5003784;28;87450;-80
2023/07/25 08:25:50;;;;;;;2.70;1.08;;;;;;;;;;5014042;28;88057;-80
2023/07/25 08:28:17;;;;;;;2.92;1.00;;;;;;;;;;5009276;28;88705;-79
2023/07/25 08:30:44;;;;;;;2.47;1.00;;;;;;;;;;5007187;28;89215;-80
2023/07/25 08:33:15;;;;;;;5.07;1.05;;;;;;;;;;5004712;28;88007;-79
2023/07/25 08:35:42;;;;;;;2.47;1.00;;;;;;;;;;5003472;28;89234;-80
2023/07/25 08:38:09;;;;;;;2.67;0.95;;;;;;;;;;5007340;28;88606;-79
2023/07/25 08:40:36;;;;;;;2.17;0.82;;;;;;;;;;5007689;28;88147;-79
2023/07/25 08:43:06;;;;;;;3.00;1.00;;;;;;;;;;4998058;28;88418;-79
2023/07/25 08:45:33;;;;;;;3.22;1.15;;;;;;;;;;4990021;28;88419;-79
2023/07/25 08:48:03;;;;;;;1.70;1.10;;;;;;;;;;5019241;28;88607;-79
2023/07/25 08:50:30;;;;;;;2.03;0.80;;;;;;;;;;5013829;28;88362;-79
2023/07/25 08:52:57;;;;;;;;;;;;;;;;;;5005963;28;89767;-79
2023/07/25 08:55:23;;;;;;;2.80;0.80;;;;;;;;;;5013993;28;105896;-79
2023/07/25 08:57:51;;;;;;;1.05;0.80;;;;;;;;;;5007964;28;88156;-80
2023/07/25 09:00:17;;;;;;;1.88;0.85;;;;;;;;;;5009078;28;88718;-81
2023/07/25 09:02:47;;;;;;;2.13;0.95;;;;;;;;;;5013774;28;87977;-80
2023/07/25 09:05:19;;;;;;;2.67;0.90;;;;;;;;;;5014923;28;88581;-80
2023/07/25 09:07:45;;;;;;;3.17;0.82;;;;;;;;;;5013017;28;88741;-80
2023/07/25 09:10:12;;;;;;;3.80;1.20;;;;;;;;;;5011354;28;88122;-81
2023/07/25 09:12:38;;;;;;;2.38;0.90;;;;;;;;;;4997409;28;88658;-80
2023/07/25 09:15:05;;;;;;;2.20;0.90;;;;;;;;;;5005002;28;88752;-81
2023/07/25 09:17:32;;;;;;;1.63;0.80;;;;;;;;;;5013755;28;88027;-81
2023/07/25 09:19:58;;;;;;;2.78;0.90;;;;;;;;;;5016036;28;89109;-80
2023/07/25 09:22:27;;;;;;;1.48;0.80;;;;;;;;;;5002745;28;88349;-80
2023/07/25 09:24:54;;;;;;;1.98;0.85;;;;;;;;;;5012997;28;88464;-80
2023/07/25 09:27:21;;;;;;;1.95;0.70;;;;;;;;;;5005390;28;91583;-80
2023/07/25 09:29:51;;;;;;;2.08;0.68;;;;;;;;;;5002494;28;88056;-80
2023/07/25 09:32:27;;;;;;;1.80;0.70;;;;;;;;;;5005018;28;88678;-80
2023/07/25 09:34:58;;;;;;;1.33;0.70;;;;;;;;;;4999422;28;87976;-81
2023/07/25 09:37:25;;;;;;;2.00;0.85;;;;;;;;;;5000484;28;87512;-80
2023/07/25 09:39:52;;;;;;;0.98;0.80;;;;;;;;;;5009837;28;88000;-80
2023/07/25 09:42:19;;;;;;;;;;;;;;;;;;5015861;28;90751;-80
2023/07/25 09:44:47;;;;;;;2.28;0.90;;;;;;;;;;5013789;28;101765;-80
2023/07/25 09:47:14;;;;;;;2.38;0.88;;;;;;;;;;5002929;28;88740;-80
2023/07/25 09:49:47;;;;;;;1.27;0.68;;;;;;;;;;4996357;28;88096;-80
2023/07/25 09:52:14;;;;;;;2.03;0.90;;;;;;;;;;5012479;28;88116;-80
2023/07/25 09:54:41;;;;;;;1.38;0.70;;;;;;;;;;5007229;28;88655;-80
2023/07/25 09:57:08;;;;;;;2.10;0.77;;;;;;;;;;4998433;28;88550;-80
2023/07/25 09:59:35;;;;;;;1.38;0.70;;;;;;;;;;5012515;28;88405;-80
2023/07/25 10:02:01;;;;;;;2.00;0.75;;;;;;;;;;5013166;28;87951;-80
2023/07/25 10:04:29;;;;;;;1.92;0.75;;;;;;;;;;5018355;28;88403;-80
2023/07/25 10:06:58;;;;;;;2.20;0.88;;;;;;;;;;5005558;28;88802;-80
2023/07/25 10:09:25;;;;;;;1.85;0.90;;;;;;;;;;5002062;28;89605;-80
2023/07/25 10:11:55;;;;;;;1.00;0.60;;;;;;;;;;5012727;28;90270;-80
2023/07/25 10:14:22;;;;;;;2.38;0.70;;;;;;;;;;5012751;28;89005;-80
2023/07/25 10:16:49;;;;;;;1.67;0.90;;;;;;;;;;4999208;28;88680;-80
2023/07/25 10:19:16;;;;;;;2.08;0.70;;;;;;;;;;5009780;28;88484;-80
2023/07/25 10:21:47;;;;;;;1.05;0.70;;;;;;;;;;5006472;28;89237;-80
2023/07/25 10:24:14;;;;;;;1.95;0.80;;;;;;;;;;5010534;28;87994;-80
2023/07/25 10:26:57;;;;;;;2.33;0.80;;;;;;;;;;5013180;28;87615;-81
2023/07/25 10:29:42;;;;;;;1.33;0.77;;;;;;;;;;5001500;28;88494;-80
2023/07/25 10:32:16;;;;;;;1.00;0.45;;;;;;;;;;4986369;28;89689;-80
2023/07/25 10:34:47;;;;;;;1.60;0.80;;;;;;;;;;5010697;28;89616;-80
2023/07/25 10:37:25;;;;;;;2.75;0.80;;;;;;;;;;4997406;28;88033;-80
2023/07/25 10:40:01;;;;;;;1.65;0.70;;;;;;;;;;4995646;28;89781;-80
2023/07/25 10:42:41;;;;;;;0.75;0.60;;;;;;;;;;5010358;28;90293;-80
2023/07/25 10:45:28;;;;;;;2.35;0.70;;;;;;;;;;5009738;28;88123;-80
2023/07/25 10:47:55;;;;;;;1.25;0.65;;;;;;;;;;4985168;28;88397;-79
2023/07/25 10:50:26;;;;;;;1.40;0.65;;;;;;;;;;5002449;28;89997;-79
2023/07/25 10:52:53;;;;;;;1.95;0.70;;;;;;;;;;4997836;28;88435;-79
2023/07/25 10:55:19;;;;;;;0.60;0.60;;;;;;;;;;5006444;28;88808;-80
2023/07/25 10:58:08;;;;;;;1.25;0.80;;;;;;;;;;5000306;28;88064;-80
2023/07/25 11:00:35;;;;;;;1.33;0.60;;;;;;;;;;5011699;28;88844;-80
2023/07/25 11:03:21;;;;;;;1.73;0.77;;;;;;;;;;5010490;28;88146;-80
2023/07/25 11:05:47;;;;;;;1.75;0.70;;;;;;;;;;5006479;28;88436;-80
2023/07/25 11:08:14;;;;;;;2.17;0.85;;;;;;;;;;5002386;28;89868;-80
2023/07/25 11:10:41;;;;;;;2.15;0.70;;;;;;;;;;5011649;28;89060;-80
2023/07/25 11:13:07;;;;;;;2.80;0.75;;;;;;;;;;5012430;28;88473;-80
2023/07/25 11:15:34;;;;;;;1.90;0.77;;;;;;;;;;4995776;28;88700;-80
2023/07/25 11:18:13;;;;;;;1.73;0.65;;;;;;;;;;4996841;28;87318;-80
2023/07/25 11:20:39;;;;;;;1.58;0.70;;;;;;;;;;5010574;28;88325;-80
2023/07/25 11:23:06;;;;;;;0.70;0.50;;;;;;;;;;5001410;28;88780;-80
2023/07/25 11:25:32;;;;;;;1.38;0.70;;;;;;;;;;5011226;28;89188;-80
2023/07/25 11:27:59;;;;;;;1.25;0.68;;;;;;;;;;5008641;28;89189;-80
2023/07/25 11:30:27;;;;;;;1.30;0.70;;;;;;;;;;5003083;28;89150;-79
2023/07/25 11:32:54;;;;;;;2.28;0.70;;;;;;;;;;5004012;28;88052;-79
2023/07/25 11:35:21;;;;;;;1.10;0.50;;;;;;;;;;5004247;28;88786;-80
2023/07/25 11:37:50;;;;;;;1.85;0.68;;;;;;;;;;5004487;28;88304;-80
2023/07/25 11:40:21;;;;;;;2.17;0.75;;;;;;;;;;5012800;28;89333;-79
2023/07/25 11:42:50;;;;;;;1.42;0.70;;;;;;;;;;5016365;28;87905;-79
2023/07/25 11:45:17;;;;;;;2.45;0.70;;;;;;;;;;5000079;28;88093;-78
2023/07/25 11:47:48;;;;;;;1.67;0.70;;;;;;;;;;4997958;28;88029;-79
2023/07/25 11:50:15;;;;;;;1.08;0.80;;;;;;;;;;4998711;28;89347;-79
2023/07/25 11:52:55;;;;;;;1.88;0.70;;;;;;;;;;5016031;28;88984;-79
2023/07/25 11:55:22;;;;;;;1.55;0.70;;;;;;;;;;5017613;28;89849;-79
2023/07/25 11:57:49;;;;;;;0.95;0.60;;;;;;;;;;5020065;28;88603;-79
2023/07/25 12:00:16;;;;;;;3.10;0.68;;;;;;;;;;5015820;28;87973;-79
2023/07/25 12:02:43;;;;;;;1.17;0.60;;;;;;;;;;5021286;28;88800;-79
2023/07/25 12:05:24;;;;;;;1.02;0.70;;;;;;;;;;5014724;28;91513;-80
2023/07/25 12:07:51;;;;;;;1.60;0.65;;;;;;;;;;5005048;28;90489;-80
2023/07/25 12:10:29;;;;;;;2.42;0.70;;;;;;;;;;5011710;28;89203;-79
2023/07/25 12:12:56;;;;;;;;;;;;;;;;;;5020821;28;87967;-80
2023/07/25 12:15:23;;;;;;;0.93;0.52;;;;;;;;;;5020120;28;88787;-80
2023/07/25 12:17:49;;;;;;;;;;;;;;;;;;5020990;28;89499;-80
2023/07/25 12:20:17;;;;;;;1.73;0.80;;;;;;;;;;5019668;28;88493;-80
2023/07/25 12:22:43;;;;;;;;;;;;;;;;;;5015096;28;89111;-79
2023/07/25 12:25:10;;;;;;;2.55;1.00;;;;;;;;;;5015385;28;100270;-80
2023/07/25 12:27:43;;;;;;;2.35;0.70;;;;;;;;;;5012193;28;88992;-79
2023/07/25 12:30:10;;;;;;;3.10;0.80;;;;;;;;;;4993784;28;88912;-80
2023/07/25 12:32:37;;;;;;;2.88;0.80;;;;;;;;;;5004931;28;87490;-79
2023/07/25 12:35:03;;;;;;;1.00;0.80;;;;;;;;;;4998667;28;88091;-80
2023/07/25 12:37:30;;;;;;;1.65;0.70;;;;;;;;;;4999093;28;89852;-79
2023/07/25 12:39:56;;;;;;;2.40;0.70;;;;;;;;;;5013824;28;88747;-79
2023/07/25 12:42:23;;;;;;;2.15;0.70;;;;;;;;;;5007715;28;89205;-80
2023/07/25 12:44:50;;;;;;;1.55;0.80;;;;;;;;;;5009915;28;88023;-80
2023/07/25 12:47:16;;;;;;;1.02;0.80;;;;;;;;;;5014164;28;90049;-79
2023/07/25 12:49:43;;;;;;;1.52;0.80;;;;;;;;;;5014521;28;88823;-80
2023/07/25 12:52:09;;;;;;;1.63;0.77;;;;;;;;;;5014595;28;87984;-80
2023/07/25 12:54:36;;;;;;;2.70;0.80;;;;;;;;;;5015840;28;89512;-80
2023/07/25 12:57:03;;;;;;;1.98;0.80;;;;;;;;;;5002369;28;88091;-80
2023/07/25 12:59:29;;;;;;;1.55;0.70;;;;;;;;;;5016527;28;91240;-80
2023/07/25 13:01:56;;;;;;;1.27;0.60;;;;;;;;;;5013579;28;90087;-80
2023/07/25 13:04:23;;;;;;;1.63;0.60;;;;;;;;;;5014715;28;88678;-79
2023/07/25 13:06:50;;;;;;;1.25;0.70;;;;;;;;;;5006694;28;89398;-80
2023/07/25 13:09:16;;;;;;;1.73;0.73;;;;;;;;;;5011066;28;88081;-79
2023/07/25 13:11:44;;;;;;;2.25;0.70;;;;;;;;;;5010111;28;88456;-79
2023/07/25 13:14:11;;;;;;;1.85;0.70;;;;;;;;;;5013721;28;88755;-80
2023/07/25 13:16:37;;;;;;;2.47;0.65;;;;;;;;;;5012332;28;91034;-80
2023/07/25 13:19:04;;;;;;;3.15;0.73;;;;;;;;;;5013374;28;88074;-79
2023/07/25 13:21:31;;;;;;;3.00;0.75;;;;;;;;;;5008927;28;88750;-80
2023/07/25 13:23:58;;;;;;;2.40;0.80;;;;;;;;;;5008040;28;87984;-80
2023/07/25 13:26:24;;;;;;;1.88;0.65;;;;;;;;;;4986443;28;89425;-79
2023/07/25 13:28:51;;;;;;;1.33;0.63;;;;;;;;;;4999715;28;91488;-80
2023/07/25 13:31:17;;;;;;;1.42;0.70;;;;;;;;;;4998225;28;88362;-80
2023/07/25 13:33:44;;;;;;;2.28;0.70;;;;;;;;;;4993477;28;88683;-80
2023/07/25 13:36:10;;;;;;;1.27;0.70;;;;;;;;;;5010202;28;88872;-79
2023/07/25 13:38:37;;;;;;;1.45;0.70;;;;;;;;;;4998621;28;88091;-80
2023/07/25 13:41:03;;;;;;;1.73;0.80;;;;;;;;;;5008350;28;88275;-80
2023/07/25 13:43:30;;;;;;;2.00;0.60;;;;;;;;;;4987895;28;88730;-80
2023/07/25 13:45:57;;;;;;;1.42;0.70;;;;;;;;;;5015332;28;88642;-79
2023/07/25 13:48:23;;;;;;;1.45;0.60;;;;;;;;;;5015457;28;89248;-80
2023/07/25 13:50:50;;;;;;;1.55;0.70;;;;;;;;;;5000386;28;88021;-80
2023/07/25 13:53:20;;;;;;;1.15;0.50;;;;;;;;;;5001739;28;89695;-80
2023/07/25 13:55:47;;;;;;;1.65;0.40;;;;;;;;;;5007043;28;88558;-80
2023/07/25 13:58:13;;;;;;;1.98;0.60;;;;;;;;;;5005651;28;88170;-80
2023/07/25 14:00:49;;;;;;;0.88;0.63;;;;;;;;;;5011619;28;88703;-80
2023/07/25 14:03:16;;;;;;;2.13;0.70;;;;;;;;;;5012703;28;88956;-81
2023/07/25 14:05:42;;;;;;;1.05;0.70;;;;;;;;;;5013406;28;90450;-80
2023/07/25 14:08:09;;;;;;;1.38;0.60;;;;;;;;;;5002625;28;88757;-80
2023/07/25 14:10:36;;;;;;;1.05;0.50;;;;;;;;;;5009807;28;88228;-80
2023/07/25 14:13:03;;;;;;;2.38;0.80;;;;;;;;;;5010867;28;91092;-80
2023/07/25 14:15:30;;;;;;;1.30;0.60;;;;;;;;;;5011804;28;88630;-80
2023/07/25 14:17:59;;;;;;;1.92;0.70;;;;;;;;;;5012099;28;88839;-80
2023/07/25 14:20:26;;;;;;;1.10;0.70;;;;;;;;;;5011739;28;89246;-79
2023/07/25 14:22:52;;;;;;;1.48;0.70;;;;;;;;;;5003694;28;88827;-80
2023/07/25 14:25:19;;;;;;;0.73;0.40;;;;;;;;;;5017173;28;88604;-80
2023/07/25 14:27:47;;;;;;;1.20;0.60;;;;;;;;;;5014938;28;88576;-80
2023/07/25 14:30:14;;;;;;;1.60;0.60;;;;;;;;;;4991983;28;88608;-80
2023/07/25 14:32:40;;;;;;;1.77;0.77;;;;;;;;;;4998540;28;88433;-80
2023/07/25 14:35:07;;;;;;;1.25;0.70;;;;;;;;;;4995815;28;89293;-80
2023/07/25 14:37:34;;;;;;;2.58;0.68;;;;;;;;;;4995771;28;88028;-80
2023/07/25 14:40:20;;;;;;;1.40;0.73;;;;;;;;;;5003255;28;88445;-80
2023/07/25 14:42:47;;;;;;;1.33;0.60;;;;;;;;;;5007826;28;89986;-80
2023/07/25 14:45:13;;;;;;;1.65;0.65;;;;;;;;;;5012355;28;87942;-80
2023/07/25 14:47:40;;;;;;;1.15;0.60;;;;;;;;;;5015488;28;89166;-80